createdAt,value
2023-01-27T00:01:06.504Z,77.5
2023-01-27T00:06:58.963Z,88.6
2023-01-27T00:12:48.041Z,84.5
2023-01-27T00:18:38.323Z,100.8
2023-01-27T00:24:29.537Z,80.2
2023-01-27T00:30:22.190Z,80.4
2023-01-27T00:36:15.765Z,76.7
2023-01-27T00:43:17.478Z,69.3
2023-01-27T00:49:07.885Z,67.8
2023-01-27T00:55:00.197Z,68.6
2023-01-27T01:00:51.342Z,65.5
2023-01-27T01:06:44.297Z,66.8
2023-01-27T01:12:36.291Z,69.6
2023-01-27T01:18:28.304Z,67.8
2023-01-27T01:24:22.372Z,64.4
2023-01-27T01:30:15.970Z,63.2
2023-01-27T01:36:10.320Z,60.4
2023-01-27T01:42:01.038Z,63
2023-01-27T01:47:54.265Z,60
2023-01-27T01:53:46.023Z,56.9
2023-01-27T01:59:38.288Z,54.6
2023-01-27T02:05:30.489Z,53.3
2023-01-27T02:11:21.289Z,50.1
2023-01-27T02:17:13.795Z,48.5
2023-01-27T02:23:03.302Z,46.3
2023-01-27T02:28:55.450Z,45.5
2023-01-27T02:34:48.937Z,43.3
2023-01-27T02:40:40.111Z,41.7
2023-01-27T02:46:34.054Z,41
2023-01-27T02:52:25.082Z,39.9
2023-01-27T02:58:16.042Z,38.8
2023-01-27T03:04:09.617Z,38.1
2023-01-27T03:10:01.343Z,37.7
2023-01-27T03:16:00.222Z,37.3
2023-01-27T03:21:52.241Z,34.9
2023-01-27T03:27:46.325Z,38.1
2023-01-27T03:33:39.389Z,38.2
2023-01-27T03:39:30.117Z,37.8
2023-01-27T03:45:28.074Z,38.9
2023-01-27T03:51:22.126Z,39
2023-01-27T03:57:15.199Z,37.3
2023-01-27T04:03:10.569Z,34.7
2023-01-27T04:09:03.861Z,32.6
2023-01-27T04:14:54.559Z,32
2023-01-27T04:20:48.486Z,30.7
2023-01-27T04:26:40.353Z,30.3
2023-01-27T04:32:32.479Z,28.2
2023-01-27T04:38:24.534Z,26.1
2023-01-27T04:44:18.195Z,28.3
2023-01-27T04:50:10.779Z,23.4
2023-01-27T04:56:03.212Z,22.9
2023-01-27T05:02:00.294Z,20.7
2023-01-27T05:07:54.087Z,20.5
2023-01-27T05:13:46.646Z,19.3
2023-01-27T05:19:40.240Z,19
2023-01-27T05:25:47.161Z,18.7
2023-01-27T05:31:39.541Z,18.6
2023-01-27T05:37:31.215Z,18.8
2023-01-27T05:43:26.044Z,18.4
2023-01-27T05:49:19.376Z,19.8
2023-01-27T05:55:11.573Z,19.6
2023-01-27T06:01:04.845Z,20.5
2023-01-27T06:06:56.204Z,19.3
2023-01-27T06:12:48.898Z,19.8
2023-01-27T06:18:39.576Z,19.9
2023-01-27T06:24:29.113Z,19.2
2023-01-27T06:30:19.941Z,21.1
2023-01-27T06:36:09.087Z,21.4
2023-01-27T06:42:01.780Z,23.4
2023-01-27T06:47:52.480Z,23.4
2023-01-27T06:53:42.784Z,20.5
2023-01-27T06:59:33.261Z,22.5
2023-01-27T07:05:25.478Z,22
2023-01-27T07:11:16.086Z,22.7
2023-01-27T07:17:06.889Z,23.4
2023-01-27T07:22:57.618Z,22
2023-01-27T07:28:50.344Z,22.5
2023-01-27T07:34:43.040Z,22.3
2023-01-27T07:40:32.481Z,21.9
2023-01-27T07:46:23.606Z,20.5
2023-01-27T07:52:16.183Z,22.6
2023-01-27T07:58:08.724Z,22
2023-01-27T08:04:00.524Z,22.7
2023-01-27T08:09:50.305Z,20.3
2023-01-27T08:16:49.484Z,20.7
2023-01-27T08:29:43.852Z,17.1
2023-01-27T08:36:40.760Z,17.6
2023-01-27T08:42:29.004Z,19.5
2023-01-27T08:53:07.166Z,19.3
2023-01-27T08:58:52.924Z,20
2023-01-27T09:04:42.116Z,19.4
2023-01-27T09:48:05.509Z,14.5
2023-01-27T09:53:50.382Z,12
2023-01-27T09:59:45.939Z,12
2023-01-27T10:05:36.585Z,13.5
2023-01-27T10:11:26.179Z,12.8
2023-01-27T10:17:17.142Z,10.9
2023-01-27T10:23:06.665Z,11.1
2023-01-27T10:28:57.472Z,10
2023-01-27T10:34:47.963Z,9
2023-01-27T10:40:36.359Z,9.1
2023-01-27T10:46:27.381Z,13.5
2023-01-27T10:52:18.677Z,10.5
2023-01-27T10:58:09.621Z,9.4
2023-01-27T11:04:01.147Z,7.1
2023-01-27T11:09:50.338Z,8.5
2023-01-27T11:15:41.024Z,9.6
2023-01-27T11:21:31.111Z,5.5
2023-01-27T11:27:21.241Z,9.8
2023-01-27T11:34:21.488Z,6.6
2023-01-27T11:40:10.573Z,3.2
2023-01-27T11:46:02.933Z,4.2
2023-01-27T11:51:55.775Z,2.7
2023-01-27T11:57:44.970Z,3.3
2023-01-27T12:03:34.602Z,2.7
2023-01-27T12:09:26.643Z,3.5
2023-01-27T12:15:17.007Z,3
2023-01-27T12:21:07.545Z,2.6
2023-01-27T12:26:59.660Z,2.4
2023-01-27T12:32:50.993Z,1.7
2023-01-27T12:38:41.498Z,2.6
2023-01-27T12:44:30.809Z,3
2023-01-27T12:50:22.472Z,2
2023-01-27T12:56:13.893Z,2.8
2023-01-27T13:02:05.537Z,2.3
2023-01-27T13:07:55.817Z,2.1
2023-01-27T13:13:46.746Z,2.3
2023-01-27T13:19:38.529Z,2.4
2023-01-27T13:25:28.513Z,2.7
2023-01-27T13:31:21.168Z,2.8
2023-01-27T13:37:13.563Z,2.6
2023-01-27T13:43:04.372Z,2
2023-01-27T13:48:55.397Z,2.6
2023-01-27T13:54:46.801Z,2.2
2023-01-27T14:00:39.182Z,2
2023-01-27T14:06:29.892Z,1.8
2023-01-27T14:12:20.233Z,2.6
2023-01-27T14:18:13.519Z,2
2023-01-27T14:24:04.660Z,2.1
2023-01-27T14:29:54.836Z,1.7
2023-01-27T14:35:45.486Z,2.4
2023-01-27T14:41:37.637Z,2.8
2023-01-27T14:47:28.801Z,2.2
2023-01-27T14:53:18.607Z,1.8
2023-01-27T14:59:09.407Z,2.5
2023-01-27T15:05:00.929Z,1.8
2023-01-27T15:10:54.240Z,1.6
2023-01-27T15:16:44.109Z,2.3
2023-01-27T15:22:34.652Z,2.8
2023-01-27T15:28:25.236Z,3.6
2023-01-27T15:34:15.446Z,1.9
2023-01-27T15:40:11.615Z,2.7
2023-01-27T15:46:01.367Z,5.3
2023-01-27T15:51:52.754Z,5.1
2023-01-27T15:57:43.480Z,2.6
2023-01-27T16:03:33.554Z,10.4
2023-01-27T16:09:24.446Z,10
2023-01-27T16:15:15.951Z,6.8
2023-01-27T16:21:06.250Z,13.2
2023-01-27T16:26:56.278Z,2.2
2023-01-27T16:32:47.338Z,3.3
2023-01-27T16:38:39.303Z,3.6
2023-01-27T16:44:31.278Z,2.5
2023-01-27T16:50:23.082Z,4
2023-01-27T16:56:11.995Z,16.9
2023-01-27T17:02:01.029Z,6.5
2023-01-27T17:07:50.792Z,6.3
2023-01-27T17:13:46.014Z,7.4
2023-01-27T17:19:35.077Z,9.1
2023-01-27T17:25:26.201Z,5.1
2023-01-27T17:31:17.642Z,5.3
2023-01-27T17:37:08.065Z,4.3
2023-01-27T17:42:58.154Z,4.4
2023-01-27T17:48:48.505Z,4.7
2023-01-27T17:54:39.793Z,6
2023-01-27T18:00:28.154Z,4.4
2023-01-27T18:06:18.072Z,5.3
2023-01-27T18:12:08.235Z,4.4
2023-01-27T18:18:02.234Z,6.1
2023-01-27T18:23:52.046Z,6.1
2023-01-27T18:29:42.498Z,6.3
2023-01-27T18:39:00.703Z,6.7
2023-01-27T18:51:48.036Z,9.1
2023-01-27T18:57:35.124Z,5.6
2023-01-27T19:03:24.560Z,6.4
2023-01-27T19:09:15.114Z,8.9
2023-01-27T19:17:22.727Z,10.3
2023-01-27T19:25:30.389Z,10.3
2023-01-27T19:33:36.194Z,8.2
2023-01-27T19:40:32.941Z,10
2023-01-27T19:51:04.065Z,11.1
2023-01-27T19:56:52.483Z,10.3
2023-01-27T20:02:41.859Z,11
2023-01-27T20:08:31.699Z,11
2023-01-27T20:14:21.932Z,10
2023-01-27T20:20:13.209Z,10.9
2023-01-27T20:26:04.151Z,12.9
2023-01-27T20:32:00.135Z,12
2023-01-27T20:44:52.785Z,14
2023-01-27T20:50:40.358Z,15.1
2023-01-27T20:56:30.394Z,11.1
2023-01-27T21:02:19.809Z,11.1
2023-01-27T21:08:10.893Z,12.2
2023-01-27T21:15:08.657Z,12.9
2023-01-27T21:21:00.178Z,13.1
2023-01-27T21:26:54.366Z,12.3
2023-01-27T21:32:43.622Z,12.2
2023-01-27T21:38:34.431Z,12.4
2023-01-27T21:44:23.987Z,11
2023-01-27T21:50:14.970Z,11.5
2023-01-27T21:56:06.388Z,12
2023-01-27T22:01:55.854Z,12.4
2023-01-27T22:07:44.948Z,12.4
2023-01-27T22:13:35.294Z,12.5
2023-01-27T22:19:24.802Z,12.9
2023-01-27T22:25:15.342Z,12.7
2023-01-27T22:31:06.655Z,12.1
2023-01-27T22:36:56.331Z,11.9
2023-01-27T22:42:46.362Z,11.4
2023-01-27T22:48:41.931Z,11.5
2023-01-27T22:54:29.401Z,11.8
2023-01-27T23:00:19.352Z,11.8
2023-01-27T23:06:09.593Z,11
2023-01-27T23:11:59.965Z,10.8
2023-01-27T23:17:49.923Z,14.5
2023-01-27T23:23:40.120Z,13.2
2023-01-27T23:29:35.367Z,13.1
2023-01-27T23:35:25.098Z,10.4
2023-01-27T23:41:15.410Z,10.6
2023-01-27T23:47:05.456Z,10.4
2023-01-27T23:52:57.492Z,11
2023-01-27T23:58:48.696Z,10.7
